Birdseye, Indiana
Current Conditions -  °F | °C
As of 1:15 AM on Friday 19 Dec 2014 (Local Time) from KHNB Reporting Station
Scattered Clouds Scattered Clouds  
Wind Chill: 23°   Ceiling: Unl
Heat Index: 28°   Visibility: 10mi
Dew Point: 23°   Wind: 5mph
Humidity: 80%   Direction: 340°NNW
Pressure: 30.27"   Gusts: NA
Location:  38.32°N, 86.7°W
Report Text: KHNB 190715Z AUTO 34004KT 10SM SCT075 M02/M05 A3027 RMK AO1
Loading
Personal Weather Stations






























Interactive Weather Map New forecast layout! Learn more

10-Day Weather Forecast

Advertisements
Track Severe Weather on mobile